createdAt,value
2022-09-24T00:01:36.262Z,12.50
2022-09-24T00:04:06.111Z,12.40
2022-09-24T00:06:44.956Z,12.40
2022-09-24T00:09:13.498Z,12.40
2022-09-24T00:11:40.927Z,12.40
2022-09-24T00:14:08.379Z,12.40
2022-09-24T00:16:35.894Z,12.30
2022-09-24T00:19:03.942Z,12.30
2022-09-24T00:21:34.021Z,12.30
2022-09-24T00:24:41.529Z,12.30
2022-09-24T00:27:08.506Z,12.30
2022-09-24T00:29:36.171Z,12.30
2022-09-24T00:32:04.507Z,12.30
2022-09-24T00:34:31.687Z,12.20
2022-09-24T00:36:59.220Z,12.20
2022-09-24T00:39:26.176Z,12.20
2022-09-24T00:41:53.173Z,12.20
2022-09-24T00:44:41.714Z,12.20
2022-09-24T00:47:23.537Z,12.20
2022-09-24T00:49:51.406Z,12.20
2022-09-24T00:52:19.267Z,12.20
2022-09-24T00:54:46.917Z,12.10
2022-09-24T00:57:14.728Z,12.20
2022-09-24T00:59:43.053Z,12.10
2022-09-24T01:02:10.515Z,12.20
2022-09-24T01:04:37.503Z,12.20
2022-09-24T01:07:04.396Z,12.20
2022-09-24T01:09:31.444Z,12.20
2022-09-24T01:12:22.795Z,12.20
2022-09-24T01:15:15.507Z,12.20
2022-09-24T01:18:03.611Z,12.20
2022-09-24T01:20:48.953Z,12.20
2022-09-24T01:23:37.109Z,12.20
2022-09-24T01:26:42.240Z,12.10
2022-09-24T01:29:26.922Z,12.10
2022-09-24T01:32:02.181Z,12.10
2022-09-24T01:34:36.678Z,12.10
2022-09-24T01:37:04.492Z,12.10
2022-09-24T01:39:33.347Z,12.00
2022-09-24T01:42:01.218Z,12.00
2022-09-24T01:44:28.267Z,12.00
2022-09-24T01:46:55.723Z,12.00
2022-09-24T01:49:22.657Z,12.00
2022-09-24T01:51:56.278Z,12.00
2022-09-24T01:54:37.322Z,11.90
2022-09-24T01:57:15.699Z,11.80
2022-09-24T01:59:52.724Z,11.80
2022-09-24T02:02:33.120Z,11.80
2022-09-24T02:05:07.990Z,11.70
2022-09-24T02:07:55.124Z,11.70
2022-09-24T02:10:22.000Z,11.70
2022-09-24T02:13:01.803Z,11.70
2022-09-24T02:15:33.484Z,11.70
2022-09-24T02:18:06.687Z,11.70
2022-09-24T02:20:36.180Z,11.70
2022-09-24T02:23:05.020Z,11.60
2022-09-24T02:25:37.541Z,11.60
2022-09-24T02:28:04.512Z,11.60
2022-09-24T02:30:43.662Z,11.60
2022-09-24T02:33:33.010Z,11.60
2022-09-24T02:36:00.148Z,11.50
2022-09-24T02:38:27.280Z,11.60
2022-09-24T02:40:55.127Z,11.60
2022-09-24T02:43:22.179Z,11.60
2022-09-24T02:45:49.066Z,11.60
2022-09-24T02:48:15.951Z,11.60
2022-09-24T02:50:42.901Z,11.60
2022-09-24T02:53:09.808Z,11.60
2022-09-24T02:55:36.679Z,11.60
2022-09-24T02:58:03.603Z,11.60
2022-09-24T03:00:30.495Z,11.70
2022-09-24T03:02:57.411Z,11.70
2022-09-24T03:05:24.803Z,11.60
2022-09-24T03:07:51.678Z,11.60
2022-09-24T03:10:19.124Z,11.60
2022-09-24T03:12:46.081Z,11.60
2022-09-24T03:15:13.037Z,11.70
2022-09-24T03:17:39.912Z,11.70
2022-09-24T03:20:07.560Z,11.70
2022-09-24T03:22:34.478Z,11.70
2022-09-24T03:25:02.690Z,11.70
2022-09-24T03:27:29.705Z,11.70
2022-09-24T03:30:14.909Z,11.70
2022-09-24T03:32:41.865Z,11.70
2022-09-24T03:35:09.082Z,11.70
2022-09-24T03:37:40.026Z,11.70
2022-09-24T03:40:08.120Z,11.60
2022-09-24T03:42:35.347Z,11.60
2022-09-24T03:45:02.358Z,11.70
2022-09-24T03:47:31.042Z,11.60
2022-09-24T03:49:58.430Z,11.60
2022-09-24T03:52:26.353Z,11.60
2022-09-24T03:54:53.246Z,11.60
2022-09-24T03:57:20.263Z,11.60
2022-09-24T03:59:47.417Z,11.60
2022-09-24T04:02:14.579Z,11.60
2022-09-24T04:04:42.130Z,11.50
2022-09-24T04:07:09.047Z,11.50
2022-09-24T04:09:36.188Z,11.50
2022-09-24T04:12:03.103Z,11.50
2022-09-24T04:14:30.012Z,11.50
2022-09-24T04:16:59.049Z,11.30
2022-09-24T04:19:26.922Z,11.30
2022-09-24T04:21:53.812Z,11.30
2022-09-24T04:24:21.388Z,11.20
2022-09-24T04:26:48.303Z,11.20
2022-09-24T04:29:15.288Z,11.10
2022-09-24T04:31:42.329Z,11.10
2022-09-24T04:34:10.250Z,11.10
2022-09-24T04:36:37.257Z,11.00
2022-09-24T04:39:04.276Z,11.10
2022-09-24T04:41:31.236Z,11.00
2022-09-24T04:43:59.439Z,11.00
2022-09-24T04:46:26.411Z,11.00
2022-09-24T04:48:53.370Z,11.00
2022-09-24T04:51:21.426Z,10.90
2022-09-24T04:53:51.086Z,10.90
2022-09-24T04:56:18.087Z,10.90
2022-09-24T04:58:45.018Z,10.90
2022-09-24T05:01:13.610Z,10.80
2022-09-24T05:03:41.095Z,10.80
2022-09-24T05:06:08.096Z,10.80
2022-09-24T05:08:35.027Z,10.70
2022-09-24T05:11:02.622Z,10.70
2022-09-24T05:13:29.624Z,10.70
2022-09-24T05:15:56.779Z,10.70
2022-09-24T05:18:23.781Z,10.60
2022-09-24T05:20:50.868Z,10.60
2022-09-24T05:23:18.117Z,10.60
2022-09-24T05:26:03.752Z,10.60
2022-09-24T05:28:33.249Z,10.60
2022-09-24T05:31:00.565Z,10.70
2022-09-24T05:33:27.486Z,10.70
2022-09-24T05:35:58.152Z,10.70
2022-09-24T05:38:25.251Z,10.70
2022-09-24T05:40:52.230Z,10.70
2022-09-24T05:43:22.276Z,10.60
2022-09-24T05:45:50.711Z,10.60
2022-09-24T05:48:17.620Z,10.60
2022-09-24T05:50:44.579Z,10.50
2022-09-24T05:53:11.542Z,10.50
2022-09-24T05:55:38.827Z,10.50
2022-09-24T05:58:07.671Z,10.50
2022-09-24T06:00:36.254Z,10.50
2022-09-24T06:03:12.907Z,10.60
2022-09-24T06:05:48.610Z,10.60
2022-09-24T06:08:20.730Z,10.60
2022-09-24T06:10:48.221Z,10.50
2022-09-24T06:13:19.271Z,10.50
2022-09-24T06:15:46.834Z,10.50
2022-09-24T06:18:13.835Z,10.50
2022-09-24T06:20:40.723Z,10.50
2022-09-24T06:23:08.157Z,10.60
2022-09-24T06:25:35.201Z,10.60
2022-09-24T06:28:04.064Z,10.70
2022-09-24T06:30:38.525Z,10.80
2022-09-24T06:33:08.584Z,10.90
2022-09-24T06:35:39.963Z,11.00
2022-09-24T06:38:08.698Z,11.10
2022-09-24T06:40:37.385Z,11.10
2022-09-24T06:43:05.813Z,11.10
2022-09-24T06:45:33.293Z,11.20
2022-09-24T06:48:02.173Z,11.20
2022-09-24T06:50:31.104Z,11.30
2022-09-24T06:52:59.214Z,11.30
2022-09-24T06:55:26.205Z,11.40
2022-09-24T06:58:07.866Z,11.50
2022-09-24T07:03:01.699Z,11.60
2022-09-24T07:05:28.738Z,11.70
2022-09-24T07:07:55.713Z,11.70
2022-09-24T07:10:24.536Z,11.70
2022-09-24T07:12:51.606Z,11.70
2022-09-24T07:15:18.517Z,11.80
2022-09-24T07:17:45.453Z,11.80
2022-09-24T07:20:12.527Z,11.80
2022-09-24T07:22:40.444Z,11.90
2022-09-24T07:25:09.790Z,12.00
2022-09-24T07:27:37.760Z,12.10
2022-09-24T07:30:09.603Z,12.20
2022-09-24T07:32:36.525Z,12.30
2022-09-24T07:35:03.683Z,12.40
2022-09-24T07:37:32.683Z,12.50
2022-09-24T07:39:59.922Z,12.60
2022-09-24T07:42:28.078Z,12.70
2022-09-24T07:44:56.691Z,12.70
2022-09-24T07:47:23.826Z,12.80
2022-09-24T07:49:50.783Z,12.80
2022-09-24T07:52:17.716Z,12.70
2022-09-24T07:54:44.726Z,12.70
2022-09-24T07:57:15.490Z,12.80
2022-09-24T07:59:44.862Z,12.80
2022-09-24T08:02:17.109Z,12.80
2022-09-24T08:04:45.112Z,12.90
2022-09-24T08:07:13.829Z,13.00
2022-09-24T08:09:40.974Z,13.00
2022-09-24T08:12:08.501Z,13.10
2022-09-24T08:14:35.497Z,13.20
2022-09-24T08:17:02.899Z,13.30
2022-09-24T08:19:31.439Z,13.40
2022-09-24T08:21:58.759Z,13.60
2022-09-24T08:24:26.041Z,13.70
2022-09-24T08:26:53.038Z,13.80
2022-09-24T08:29:19.954Z,13.90
2022-09-24T08:31:47.009Z,14.10
2022-09-24T08:34:14.092Z,14.30
2022-09-24T08:36:43.201Z,14.40
2022-09-24T08:39:10.647Z,14.50
2022-09-24T08:41:49.858Z,14.60
2022-09-24T08:44:54.178Z,14.70
2022-09-24T08:47:38.951Z,14.90
2022-09-24T08:50:22.036Z,15.10
2022-09-24T08:53:09.714Z,15.30
2022-09-24T08:55:41.355Z,15.50
2022-09-24T08:58:17.166Z,15.50
2022-09-24T09:00:50.592Z,15.80
2022-09-24T09:03:47.758Z,15.90
2022-09-24T09:06:23.325Z,16.20
2022-09-24T09:09:19.869Z,16.50
2022-09-24T09:12:02.390Z,16.70
2022-09-24T09:14:55.674Z,17.20
2022-09-24T09:17:52.456Z,18.00
2022-09-24T09:20:24.646Z,18.90
2022-09-24T09:22:53.579Z,20.00
2022-09-24T09:25:28.522Z,20.80
2022-09-24T09:27:58.930Z,21.60
2022-09-24T09:30:26.025Z,22.90
2022-09-24T09:33:14.624Z,23.50
2022-09-24T09:36:02.486Z,24.40
2022-09-24T09:38:43.711Z,25.00
2022-09-24T09:41:29.215Z,24.90
2022-09-24T09:44:27.104Z,24.80
2022-09-24T09:47:11.826Z,24.30
2022-09-24T09:49:40.492Z,24.00
2022-09-24T09:52:20.956Z,24.00
2022-09-24T09:54:48.822Z,23.80
2022-09-24T09:57:22.038Z,23.70
2022-09-24T09:59:51.141Z,23.70
2022-09-24T10:02:31.661Z,23.80
2022-09-24T10:05:01.111Z,24.70
2022-09-24T10:07:28.755Z,24.60
2022-09-24T10:10:03.168Z,25.50
2022-09-24T10:12:30.768Z,25.70
2022-09-24T10:15:15.534Z,26.50
2022-09-24T10:17:43.889Z,27.80
2022-09-24T10:20:31.462Z,28.50
2022-09-24T10:23:02.607Z,27.90
2022-09-24T10:25:31.571Z,27.00
2022-09-24T10:28:25.411Z,26.40
2022-09-24T10:31:03.697Z,26.30
2022-09-24T10:33:42.882Z,25.70
2022-09-24T10:36:15.828Z,25.00
2022-09-24T10:38:43.881Z,24.70
2022-09-24T10:41:28.644Z,24.20
2022-09-24T10:43:57.194Z,23.80
2022-09-24T10:46:35.956Z,23.80
2022-09-24T10:49:02.824Z,24.10
2022-09-24T10:52:12.822Z,25.10
2022-09-24T10:55:07.222Z,26.10
2022-09-24T10:57:52.821Z,26.30
2022-09-24T11:00:32.874Z,26.30
2022-09-24T11:03:17.719Z,25.80
2022-09-24T11:05:52.360Z,25.40
2022-09-24T11:08:31.459Z,25.20
2022-09-24T11:11:28.181Z,25.10
2022-09-24T11:14:21.969Z,25.20
2022-09-24T11:17:06.466Z,25.50
2022-09-24T11:20:06.747Z,25.10
2022-09-24T11:22:45.419Z,24.70
2022-09-24T11:25:32.223Z,25.00
2022-09-24T11:28:20.112Z,25.30
2022-09-24T11:31:01.908Z,25.80
2022-09-24T11:33:34.944Z,26.30
2022-09-24T11:36:10.684Z,26.30
2022-09-24T11:38:43.471Z,26.80
2022-09-24T11:41:13.586Z,27.10
2022-09-24T11:44:13.533Z,27.70
2022-09-24T11:47:14.094Z,28.50
2022-09-24T11:49:59.426Z,29.40
2022-09-24T11:52:44.020Z,30.70
2022-09-24T11:55:23.222Z,32.00
2022-09-24T11:58:19.465Z,31.30
2022-09-24T12:01:15.086Z,30.60
2022-09-24T12:03:59.008Z,28.70
2022-09-24T12:06:33.449Z,27.10
2022-09-24T12:09:10.594Z,26.20
2022-09-24T12:11:42.925Z,25.70
2022-09-24T12:14:26.829Z,24.90
2022-09-24T12:17:01.283Z,24.40
2022-09-24T12:19:39.375Z,23.80
2022-09-24T12:22:06.938Z,23.40
2022-09-24T12:24:55.088Z,22.90
2022-09-24T12:27:28.866Z,22.60
2022-09-24T12:30:14.197Z,22.40
2022-09-24T12:32:57.562Z,22.60
2022-09-24T12:35:34.431Z,22.80
2022-09-24T12:38:04.671Z,22.90
2022-09-24T12:40:53.895Z,23.10
2022-09-24T12:43:34.560Z,23.50
2022-09-24T12:46:06.455Z,24.20
2022-09-24T12:48:37.406Z,25.00
2022-09-24T12:51:09.047Z,25.00
2022-09-24T12:53:40.279Z,25.30
2022-09-24T12:56:07.873Z,25.30
2022-09-24T12:58:43.791Z,25.70
2022-09-24T13:01:26.077Z,27.40
2022-09-24T13:04:26.730Z,28.10
2022-09-24T13:06:54.352Z,29.00
2022-09-24T13:09:37.823Z,28.20
2022-09-24T13:12:16.519Z,27.10
2022-09-24T13:15:10.781Z,26.60
2022-09-24T13:17:40.458Z,25.90
2022-09-24T13:20:17.324Z,25.20
2022-09-24T13:22:55.870Z,24.80
2022-09-24T13:25:24.672Z,24.50
2022-09-24T13:28:37.720Z,24.60
2022-09-24T13:31:26.096Z,24.70
2022-09-24T13:34:03.371Z,24.40
2022-09-24T13:36:36.037Z,24.20
2022-09-24T13:39:12.262Z,23.80
2022-09-24T13:41:42.239Z,23.60
2022-09-24T13:44:16.590Z,23.50
2022-09-24T13:46:46.783Z,23.40
2022-09-24T13:49:18.774Z,23.10
2022-09-24T13:51:50.929Z,22.90
2022-09-24T13:54:36.964Z,23.10
2022-09-24T13:57:11.997Z,23.30
2022-09-24T13:59:39.030Z,23.30
2022-09-24T14:02:26.887Z,23.30
2022-09-24T14:05:01.480Z,23.30
2022-09-24T14:07:29.761Z,23.00
2022-09-24T14:10:06.505Z,22.50
2022-09-24T14:12:33.512Z,22.40
2022-09-24T14:15:00.488Z,22.10
2022-09-24T14:17:27.564Z,22.00
2022-09-24T14:19:58.068Z,21.70
2022-09-24T14:22:34.073Z,21.50
2022-09-24T14:25:09.089Z,21.60
2022-09-24T14:27:45.034Z,21.50
2022-09-24T14:30:23.780Z,21.50
2022-09-24T14:33:15.246Z,21.40
2022-09-24T14:35:48.117Z,21.30
2022-09-24T14:38:41.303Z,21.20
2022-09-24T14:41:21.756Z,21.20
2022-09-24T14:44:14.549Z,21.20
2022-09-24T14:46:51.123Z,21.10
2022-09-24T14:49:27.172Z,21.00
2022-09-24T14:52:02.957Z,20.90
2022-09-24T14:54:40.666Z,20.80
2022-09-24T14:57:19.440Z,20.70
2022-09-24T14:59:47.978Z,20.60
2022-09-24T15:02:25.388Z,20.60
2022-09-24T15:04:55.731Z,20.50
2022-09-24T15:07:25.875Z,20.50
2022-09-24T15:10:05.334Z,20.50
2022-09-24T15:12:41.043Z,20.40
2022-09-24T15:15:32.229Z,20.40
2022-09-24T15:17:59.125Z,20.40
2022-09-24T15:20:26.157Z,20.40
2022-09-24T15:22:53.144Z,20.40
2022-09-24T15:25:20.066Z,20.40
2022-09-24T15:27:47.184Z,20.20
2022-09-24T15:30:20.006Z,20.10
2022-09-24T15:32:47.774Z,20.00
2022-09-24T15:35:16.568Z,19.90
2022-09-24T15:37:44.869Z,19.90
2022-09-24T15:40:25.698Z,19.80
2022-09-24T15:42:53.121Z,19.80
2022-09-24T15:45:23.065Z,19.60
2022-09-24T15:47:50.965Z,19.60
2022-09-24T15:50:19.607Z,19.60
2022-09-24T15:52:57.053Z,19.60
2022-09-24T15:55:24.330Z,19.40
2022-09-24T15:57:51.381Z,19.30
2022-09-24T16:00:23.526Z,19.20
2022-09-24T16:02:56.619Z,19.20
2022-09-24T16:05:24.747Z,19.10
2022-09-24T16:07:51.700Z,19.00
2022-09-24T16:10:18.762Z,18.90
2022-09-24T16:12:45.704Z,18.90
2022-09-24T16:15:14.515Z,18.80
2022-09-24T16:17:41.786Z,18.80
2022-09-24T16:20:10.171Z,18.80
2022-09-24T16:22:37.114Z,18.80
2022-09-24T16:25:05.127Z,18.80
2022-09-24T16:27:32.155Z,18.70
2022-09-24T16:29:59.479Z,18.70
2022-09-24T16:32:26.383Z,18.80
2022-09-24T16:34:55.051Z,18.70
2022-09-24T16:37:22.006Z,18.60
2022-09-24T16:39:48.993Z,18.60
2022-09-24T16:42:16.084Z,18.40
2022-09-24T16:44:43.008Z,18.40
2022-09-24T16:47:10.178Z,18.40
2022-09-24T16:49:37.139Z,18.40
2022-09-24T16:52:04.525Z,18.30
2022-09-24T16:54:32.774Z,18.20
2022-09-24T16:57:01.867Z,18.20
2022-09-24T16:59:29.076Z,18.20
2022-09-24T17:01:56.054Z,18.10
2022-09-24T17:04:23.084Z,18.00
2022-09-24T17:06:49.993Z,17.90
2022-09-24T17:09:35.603Z,17.90
2022-09-24T17:12:02.548Z,17.80
2022-09-24T17:14:29.532Z,17.60
2022-09-24T17:16:56.609Z,17.50
2022-09-24T17:19:23.682Z,17.50
2022-09-24T17:21:50.731Z,17.40
2022-09-24T17:24:21.470Z,17.30
2022-09-24T17:26:49.132Z,17.30
2022-09-24T17:29:18.430Z,17.20
2022-09-24T17:31:45.392Z,17.20
2022-09-24T17:34:15.155Z,17.20
2022-09-24T17:36:42.845Z,17.30
2022-09-24T17:39:12.976Z,17.30
2022-09-24T17:41:40.000Z,17.20
2022-09-24T17:44:07.341Z,17.20
2022-09-24T17:46:36.029Z,17.10
2022-09-24T17:49:03.299Z,17.10
2022-09-24T17:51:33.186Z,17.00
2022-09-24T17:54:07.306Z,17.00
2022-09-24T17:56:39.087Z,17.00
2022-09-24T17:59:08.338Z,16.90
2022-09-24T18:01:37.258Z,16.90
2022-09-24T18:04:06.655Z,16.90
2022-09-24T18:06:37.529Z,16.80
2022-09-24T18:09:05.409Z,16.90
2022-09-24T18:11:52.843Z,16.90
2022-09-24T18:14:22.561Z,16.90
2022-09-24T18:16:50.250Z,16.90
2022-09-24T18:19:18.010Z,16.80
2022-09-24T18:21:46.484Z,16.70
2022-09-24T18:24:14.558Z,16.80
2022-09-24T18:26:41.682Z,16.80
2022-09-24T18:29:15.810Z,16.70
2022-09-24T18:31:44.115Z,16.70
2022-09-24T18:34:15.023Z,16.70
2022-09-24T18:36:43.478Z,16.70
2022-09-24T18:39:13.703Z,16.70
2022-09-24T18:41:41.873Z,16.70
2022-09-24T18:44:09.792Z,16.60
2022-09-24T18:46:36.938Z,16.60
2022-09-24T18:49:06.372Z,16.60
2022-09-24T18:51:36.015Z,16.50
2022-09-24T18:54:09.070Z,16.50
2022-09-24T18:56:36.499Z,16.50
2022-09-24T18:59:09.750Z,16.40
2022-09-24T19:01:37.970Z,16.40
2022-09-24T19:04:06.088Z,16.30
2022-09-24T19:06:36.201Z,16.30
2022-09-24T19:09:04.999Z,16.30
2022-09-24T19:11:32.698Z,16.20
2022-09-24T19:13:59.691Z,16.20
2022-09-24T19:16:26.848Z,16.10
2022-09-24T19:18:54.369Z,16.10
2022-09-24T19:21:24.433Z,16.10
2022-09-24T19:23:57.023Z,16.10
2022-09-24T19:26:32.136Z,16.10
2022-09-24T19:28:59.443Z,16.10
2022-09-24T19:31:34.739Z,16.10
2022-09-24T19:34:05.046Z,16.10
2022-09-24T19:36:38.701Z,16.10
2022-09-24T19:39:10.285Z,16.10
2022-09-24T19:41:37.639Z,16.10
2022-09-24T19:44:08.784Z,16.10
2022-09-24T19:46:38.651Z,16.20
2022-09-24T19:49:06.358Z,16.20
2022-09-24T19:51:34.534Z,16.20
2022-09-24T19:54:06.899Z,16.20
2022-09-24T19:56:34.682Z,16.10
2022-09-24T19:59:02.190Z,16.10
2022-09-24T20:01:31.777Z,16.10
2022-09-24T20:04:00.400Z,16.00
2022-09-24T20:06:29.319Z,16.10
2022-09-24T20:08:57.315Z,16.00
2022-09-24T20:11:25.737Z,16.00
2022-09-24T20:13:55.427Z,16.10
2022-09-24T20:16:26.343Z,16.00
2022-09-24T20:18:57.926Z,16.00
2022-09-24T20:21:27.829Z,16.00
2022-09-24T20:23:56.828Z,16.10
2022-09-24T20:26:42.786Z,16.10
2022-09-24T20:29:12.015Z,16.10
2022-09-24T20:31:47.346Z,16.10
2022-09-24T20:34:14.288Z,16.10
2022-09-24T20:36:41.153Z,16.10
2022-09-24T20:39:08.093Z,16.00
2022-09-24T20:41:35.114Z,16.00
2022-09-24T20:44:02.167Z,16.00
2022-09-24T20:46:29.485Z,16.00
2022-09-24T20:48:59.104Z,15.90
2022-09-24T20:51:28.881Z,15.90
2022-09-24T20:53:56.496Z,15.90
2022-09-24T20:56:23.612Z,15.90
2022-09-24T20:58:52.481Z,16.00
2022-09-24T21:01:21.191Z,16.00
2022-09-24T21:03:50.164Z,15.90
2022-09-24T21:06:18.630Z,15.90
2022-09-24T21:08:46.882Z,15.80
2022-09-24T21:11:20.127Z,15.80
2022-09-24T21:13:52.319Z,15.80
2022-09-24T21:16:22.493Z,15.80
2022-09-24T21:18:50.884Z,15.80
2022-09-24T21:21:20.548Z,15.80
2022-09-24T21:23:52.917Z,15.80
2022-09-24T21:26:28.394Z,15.70
2022-09-24T21:29:09.891Z,15.70
2022-09-24T21:31:38.352Z,15.70
2022-09-24T21:34:07.088Z,15.70
2022-09-24T21:36:43.662Z,15.70
2022-09-24T21:39:19.976Z,15.70
2022-09-24T21:41:55.029Z,15.70
2022-09-24T21:44:22.434Z,15.70
2022-09-24T21:46:52.723Z,15.70
2022-09-24T21:49:20.582Z,15.60
2022-09-24T21:51:47.910Z,15.60
2022-09-24T21:54:17.235Z,15.60
2022-09-24T21:56:45.634Z,15.60
2022-09-24T21:59:30.999Z,15.60
2022-09-24T22:01:58.276Z,15.60
2022-09-24T22:04:25.297Z,15.50
2022-09-24T22:06:52.643Z,15.50
2022-09-24T22:09:20.079Z,15.50
2022-09-24T22:11:47.521Z,15.40
2022-09-24T22:14:14.874Z,15.40
2022-09-24T22:16:42.164Z,15.40
2022-09-24T22:19:09.622Z,15.40
2022-09-24T22:21:36.887Z,15.40
2022-09-24T22:24:04.774Z,15.40
2022-09-24T22:26:31.762Z,15.40
2022-09-24T22:28:59.270Z,15.30
2022-09-24T22:31:26.961Z,15.30
2022-09-24T22:34:12.541Z,15.30
2022-09-24T22:36:39.879Z,15.30
2022-09-24T22:39:07.777Z,15.30
2022-09-24T22:41:43.278Z,15.30
2022-09-24T22:44:11.975Z,15.30
2022-09-24T22:46:39.678Z,15.30
2022-09-24T22:49:06.980Z,15.30
2022-09-24T22:51:34.291Z,15.30
2022-09-24T22:54:01.378Z,15.30
2022-09-24T22:56:30.059Z,15.30
2022-09-24T22:58:59.738Z,15.30
2022-09-24T23:01:41.567Z,15.30
2022-09-24T23:04:10.018Z,15.20
2022-09-24T23:06:37.548Z,15.20
2022-09-24T23:09:04.971Z,15.20
2022-09-24T23:11:34.348Z,15.10
2022-09-24T23:14:04.826Z,15.20
2022-09-24T23:16:36.495Z,15.10
2022-09-24T23:19:06.881Z,15.10
2022-09-24T23:21:34.864Z,15.10
2022-09-24T23:24:05.602Z,15.10
2022-09-24T23:26:32.886Z,15.10
2022-09-24T23:29:00.444Z,15.00
2022-09-24T23:31:29.870Z,15.00
2022-09-24T23:33:58.597Z,15.00
2022-09-24T23:36:27.098Z,15.00
2022-09-24T23:38:54.363Z,14.90
2022-09-24T23:41:21.862Z,15.00
2022-09-24T23:43:49.394Z,14.90
2022-09-24T23:46:16.886Z,14.90
2022-09-24T23:48:44.473Z,14.90
2022-09-24T23:51:11.817Z,14.90
2022-09-24T23:53:39.480Z,14.80
2022-09-24T23:56:07.711Z,14.80
2022-09-24T23:58:35.210Z,14.80
